Flight Track Log - Related Links

Times and Time Zones

All times are in EDT time to prevent confusion due to time zone crossing. See the JBU732 flight status page for this flight to view local times or setup timezone preferences in your user account.

Time Position Orientation Groundspeed Altitude Reporting Facility
EDT Latitude Longitude Course Direction KTS MPH feet Rate Location/Type
Mon 11:26:09 AM 18.5167 -67.1167 309° West 250 288 2,000  Level San Juan Center
Mon 11:27:00 AM 18.7035 -67.3808 311° West  Level FlightAware Approximate
Mon 11:27:09 AM 18.5667 -67.2000 302° West 310 357 5,300  Level San Juan Center
Mon 11:28:00 AM 18.7781 -67.4838 305° West  Level FlightAware Approximate
Mon 11:28:10 AM 18.6167 -67.2667 308° West 290 334 8,400  Level San Juan Center
Mon 11:29:00 AM 18.8526 -67.5867 309° West  Level FlightAware Approximate
Mon 11:29:09 AM 18.6667 -67.3333 308° West 300 345 10,800  Level San Juan Center
Mon 11:30:00 AM 18.9308 -67.6870 309° West  Level FlightAware Approximate
Mon 11:30:10 AM 18.7167 -67.4167 302° West 340 391 12,600  Level San Juan Center
Mon 11:31:00 AM 19.0089 -67.7875 309° West  Level FlightAware Approximate
Mon 11:31:10 AM 18.7833 -67.4833 317° Northwest 350 403 15,400  Level San Juan Center
Mon 11:32:10 AM 18.8333 -67.5667 302° West 360 414 17,100 1,736 Climbing San Juan Center
Mon 11:33:11 AM 18.9000 -67.6500 310° West 360 414 18,900 1,736 Climbing San Juan Center
Mon 11:34:11 AM 18.9667 -67.7500 305° West 380 437 20,600 1,686 Climbing San Juan Center
Mon 11:35:12 AM 19.0333 -67.8333 310° West 390 449 22,300 1,537 Climbing San Juan Center
Mon 11:36:12 AM 19.1000 -67.9333 305° West 410 472 23,700 1,600 Climbing San Juan Center
Mon 11:37:12 AM 19.1833 -68.0167 317° Northwest 410 472 25,500 1,339 Climbing San Juan Center
Mon 11:38:13 AM 19.2500 -68.1167 305° West 410 472 26,400 942 Climbing San Juan Center
Mon 11:39:13 AM 19.3167 -68.2167 305° West 430 495 27,400 1,200 Climbing San Juan Center
Mon 11:40:13 AM 19.4000 -68.3167 311° West 440 506 28,800 1,250 Climbing San Juan Center
Mon 11:41:13 AM 19.4667 -68.4167 305° West 430 495 29,900 1,240 Climbing San Juan Center
Mon 11:42:14 AM 19.5500 -68.5333 307° West 430 495 31,300 1,026 Climbing San Juan Center
Mon 11:43:45 AM 19.6864 -68.7008 311° West 481 554 32,500 755 Climbing Miami Center
Mon 11:44:45 AM 19.7586 -68.8086 305° West 455 524 33,200 700 Climbing Miami Center
Mon 11:45:45 AM 19.8386 -68.9097 310° West 455 524 33,900 400 Climbing Miami Center
Mon 11:46:45 AM 19.9047 -69.0225 302° West 455 524 34,000 100 Climbing Miami Center
Mon 11:47:45 AM 19.9708 -69.1397 301° West 455 524 34,100 500 Climbing Miami Center
Mon 11:48:45 AM 20.0428 -69.2481 305° West 455 524 35,000 850 Climbing Miami Center
Mon 11:49:45 AM 20.1106 -69.3614 303° West 455 524 35,800 500 Climbing Miami Center
Mon 11:50:45 AM 20.1744 -69.4747 301° West 455 524 36,000 100 Climbing Miami Center
Mon 11:51:45 AM 20.2439 -69.5836 304° West 455 524 36,000  Level Miami Center
Mon 11:52:46 AM 20.3117 -69.6947 303° West 455 524 36,000  Level Miami Center
Mon 11:53:45 AM 20.3769 -69.8017 303° West 450 518 36,000  Level Miami Center
Mon 11:54:45 AM 20.4444 -69.9153 302° West 450 518 36,000  Level Miami Center
Mon 11:55:45 AM 20.5161 -70.0267 305° West 450 518 36,000  Level Miami Center
Mon 11:56:45 AM 20.5817 -70.1431 301° West 450 518 36,000  Level Miami Center
Mon 11:57:45 AM 20.6531 -70.2547 304° West 455 524 36,000  Level Miami Center
Mon 11:58:45 AM 20.7206 -70.3708 302° West 460 529 36,000  Level Miami Center
Mon 11:59:45 AM 20.7900 -70.4850 303° West 460 529 36,000  Level Miami Center
Mon 12:00:45 PM 20.8569 -70.5972 303° West 460 529 36,000  Level Miami Center
Mon 12:01:45 PM 20.9242 -70.7094 303° West 455 524 36,000  Level Miami Center
Mon 12:02:45 PM 20.9933 -70.8242 303° West 455 524 36,000  Level Miami Center
Mon 12:03:45 PM 21.0603 -70.9389 302° West 455 524 36,000  Level Miami Center
Mon 12:04:45 PM 21.1269 -71.0514 302° West 455 524 36,000  Level Miami Center
Mon 12:05:45 PM 21.1853 -71.1558 301° West 455 524 36,000  Level Miami Center
Mon 12:06:46 PM 21.2542 -71.2731 302° West 455 524 36,000  Level Miami Center
Mon 12:07:45 PM 21.3231 -71.3925 302° West 460 529 36,000  Level Miami Center
Mon 12:08:45 PM 21.3939 -71.5097 303° West 460 529 36,000  Level Miami Center
Mon 12:09:45 PM 21.4625 -71.6253 303° West 460 529 36,000  Level Miami Center
Mon 12:10:45 PM 21.5289 -71.7386 302° West 460 529 36,000  Level Miami Center
Mon 12:11:45 PM 21.5978 -71.8586 302° West 465 535 36,000  Level Miami Center
Mon 12:12:45 PM 21.6639 -71.9722 302° West 465 535 36,000  Level Miami Center
Mon 12:13:45 PM 21.7303 -72.0903 301° West 465 535 36,000  Level Miami Center
Mon 12:14:45 PM 21.7986 -72.2064 302° West 465 535 36,000  Level Miami Center
Mon 12:15:45 PM 21.8667 -72.3225 302° West 465 535 36,000  Level Miami Center
Mon 12:16:45 PM 21.9328 -72.4433 301° West 465 535 36,000  Level Miami Center
Mon 12:17:45 PM 22.0008 -72.5575 303° West 465 535 36,000  Level Miami Center
Mon 12:18:45 PM 22.0667 -72.6739 301° West 465 535 36,000  Level Miami Center
Mon 12:19:45 PM 22.1367 -72.7906 303° West 465 535 36,000  Level Miami Center
Mon 12:20:45 PM 22.2044 -72.9072 302° West 465 535 36,000  Level Miami Center
Mon 12:21:45 PM 22.2681 -73.0264 300° West 465 535 36,000  Level Miami Center
Mon 12:22:45 PM 22.3336 -73.1456 301° West 465 535 36,000  Level Miami Center
Mon 12:23:45 PM 22.4014 -73.2650 302° West 465 535 36,000  Level Miami Center
Mon 12:24:45 PM 22.4708 -73.3844 302° West 465 535 36,000  Level Miami Center
Mon 12:25:45 PM 22.5403 -73.5017 303° West 465 535 36,000  Level Miami Center
Mon 12:26:45 PM 22.6078 -73.6192 302° West 465 535 36,000  Level Miami Center
Mon 12:27:45 PM 22.6750 -73.7389 301° West 465 535 36,000  Level Miami Center
Mon 12:28:45 PM 22.7400 -73.8567 301° West 465 535 36,000  Level Miami Center
Mon 12:29:45 PM 22.8050 -73.9747 301° West 465 535 36,000  Level Miami Center
Mon 12:30:46 PM 22.8739 -74.0925 302° West 465 535 36,000  Level Miami Center
Mon 12:31:45 PM 22.9389 -74.2086 301° West 459 528 36,000  Level Miami Center
Mon 12:32:45 PM 23.0075 -74.3244 303° West 459 528 36,000 50 Level Miami Center
Mon 12:33:45 PM 23.0722 -74.4428 301° West 459 528 36,100  Climbing Miami Center
Mon 12:34:45 PM 23.1347 -74.5592 300° West 464 534 36,000 -50 Descending Miami Center
Mon 12:35:45 PM 23.1992 -74.6733 302° West 459 528 36,000  Level Miami Center
Mon 12:36:45 PM 23.2633 -74.7875 301° West 454 522 36,000  Level Miami Center
Mon 12:37:45 PM 23.3297 -74.9061 301° West 454 522 36,000  Level Miami Center
Mon 12:38:45 PM 23.3939 -75.0208 301° West 454 522 36,000  Level Miami Center
Mon 12:39:45 PM 23.4578 -75.1375 301° West 449 517 36,000  Level Miami Center
Mon 12:40:45 PM 23.5219 -75.2500 302° West 444 511 36,000  Level Miami Center
Mon 12:41:45 PM 23.5836 -75.3672 300° West 444 511 36,000  Level Miami Center
Mon 12:42:45 PM 23.6494 -75.4842 302° West 444 511 36,000  Level Miami Center
Mon 12:43:45 PM 23.7153 -75.6017 301° West 444 511 36,000  Level Miami Center
Mon 12:44:45 PM 23.7769 -75.7214 299° West 444 511 36,000  Level Miami Center
Mon 12:45:45 PM 23.8406 -75.8411 300° West 444 511 36,000  Level Miami Center
Mon 12:46:45 PM 23.9019 -75.9589 300° West 444 511 36,000  Level Miami Center
Mon 12:47:45 PM 23.9653 -76.0744 301° West 444 511 36,000  Level Miami Center
Mon 12:48:45 PM 24.0264 -76.1900 300° West 439 505 36,000  Level Miami Center
Mon 12:49:45 PM 24.0897 -76.3058 301° West 439 505 36,000  Level Miami Center
Mon 12:50:45 PM 24.1506 -76.4239 299° West 439 505 36,000  Level Miami Center
Mon 12:51:45 PM 24.2136 -76.5375 301° West 439 505 36,000  Level Miami Center
Mon 12:52:45 PM 24.2722 -76.6514 299° West 439 505 36,000 50 Level Miami Center
Mon 12:53:45 PM 24.3372 -76.7700 301° West 439 505 36,100  Climbing Miami Center
Mon 12:54:45 PM 24.3978 -76.8886 299° West 439 505 36,000 -50 Descending Miami Center
Mon 12:55:45 PM 24.4583 -77.0028 300° West 439 505 36,000  Level Miami Center
Mon 12:56:45 PM 24.5208 -77.1214 300° West 439 505 36,000  Level Miami Center
Mon 12:57:45 PM 24.5833 -77.2381 301° West 439 505 36,000  Level Miami Center
Mon 12:58:45 PM 24.6436 -77.3572 299° West 439 505 36,000  Level Miami Center
Mon 12:59:45 PM 24.7058 -77.4764 300° West 439 505 36,000  Level Miami Center
Mon 01:00:45 PM 24.7661 -77.5981 299° West 445 512 36,000  Level Miami Center
Mon 01:01:45 PM 24.8300 -77.7175 301° West 450 518 36,000  Level Miami Center
Mon 01:02:45 PM 24.8942 -77.8394 300° West 455 524 36,000  Level Miami Center
Mon 01:03:45 PM 24.9561 -77.9567 300° West 455 524 36,000  Level Miami Center
Mon 01:04:45 PM 25.0178 -78.0744 300° West 455 524 36,000  Level Miami Center
Mon 01:05:45 PM 25.0794 -78.1942 300° West 450 518 36,000  Level Miami Center
Mon 01:06:00 PM 25.0911 -78.2141 300° West  Level FlightAware Approximate
Mon 01:06:45 PM 25.1453 -78.3211 300° West 439 505 36,000  Level Miami Center
Mon 01:07:45 PM 25.2067 -78.4367 300° West 439 505 36,000  Level Miami Center
Mon 01:08:45 PM 25.2681 -78.5547 300° West 439 505 36,000  Level Miami Center
Mon 01:09:45 PM 25.3253 -78.6750 298° West 439 505 36,000  Level Miami Center
Mon 01:11:00 PM 25.3958 -78.8161 299° West  Level FlightAware Approximate
Mon 01:11:45 PM 25.4494 -78.9094 299° West 439 505 36,000  Level Miami Center
Mon 01:12:45 PM 25.5022 -79.0161 299° West 439 505 36,000  Level Miami Center
Mon 01:13:45 PM 25.5611 -79.1325 299° West 439 505 36,000 -50 Level Miami Center
Mon 01:14:45 PM 25.6200 -79.2511 299° West 439 505 35,900  Descending Miami Center
Mon 01:15:45 PM 25.6786 -79.3697 299° West 439 505 36,000 50 Climbing Miami Center
Mon 01:16:45 PM 25.7350 -79.4861 298° West 439 505 36,000 -300 Level Miami Center
Mon 01:17:45 PM 25.7956 -79.6075 299° West 439 505 35,400 -800 Descending Miami Center
Mon 01:18:45 PM 25.8558 -79.7244 300° West 439 505 34,400 -1,000 Descending Miami Center
Mon 01:19:45 PM 25.9161 -79.8436 299° West 445 512 33,400 -1,000 Descending Miami Center
Mon 01:20:45 PM 25.9783 -79.9653 300° West 445 512 32,400 -1,150 Descending Miami Center
Mon 01:21:45 PM 26.0447 -80.0803 303° West 445 512 31,100 -1,250 Descending Miami Center
Mon 01:22:45 PM 26.1347 -80.1775 316° Northwest 445 512 29,900 -1,050 Descending Miami Center
Mon 01:23:45 PM 26.2539 -80.2597 328° Northwest 448 516 29,000 -1,400 Descending Miami Center
Mon 01:24:45 PM 26.3714 -80.3189 336° Northwest 453 521 27,100 -1,550 Descending Miami Center
Mon 01:25:45 PM 26.4831 -80.3731 337° Northwest 448 516 25,900 -1,100 Descending Miami Center
Mon 01:26:45 PM 26.5964 -80.4297 336° Northwest 441 507 24,900 -950 Descending Miami Center
Mon 01:27:45 PM 26.6975 -80.4794 336° Northwest 434 499 24,000 -1,000 Descending Miami Center
Mon 01:28:45 PM 26.8150 -80.5414 335° Northwest 434 499 22,900 -1,000 Descending Miami Center
Mon 01:29:45 PM 26.9242 -80.5983 335° Northwest 434 499 22,000 -950 Descending Miami Center
Mon 01:30:45 PM 27.0272 -80.6506 336° Northwest 428 493 21,000 -1,000 Descending Miami Center
Mon 01:31:45 PM 27.1303 -80.7028 336° Northwest 417 480 20,000 -1,000 Descending Miami Center
Mon 01:32:45 PM 27.2378 -80.7414 342° North 412 474 19,000 -1,100 Descending Miami Center
Mon 01:33:45 PM 27.3353 -80.7681 346° North 400 460 17,800 -1,450 Descending Miami Center
Mon 01:34:45 PM 27.4533 -80.8072 344° North 394 453 16,100 -1,350 Descending Miami Center
Mon 01:35:45 PM 27.5500 -80.8575 335° Northwest 394 453 15,100 -950 Descending Miami Center
Mon 01:36:45 PM 27.6464 -80.9194 330° Northwest 388 447 14,200 -800 Descending Miami Center
Mon 01:37:45 PM 27.7386 -80.9767 331° Northwest 388 447 13,500 -1,300 Descending Miami Center
Mon 01:38:45 PM 27.8275 -81.0103 342° North 376 433 11,600 -823 Descending Miami Center
Mon 01:40:40 PM 28.0167 -81.1333 330° Northwest 387 445 11,100 -446 Descending Orlando TRACON
Mon 01:41:40 PM 28.1167 -81.1667 344° North 362 417 10,300 -810 Descending Orlando TRACON
Mon 01:42:46 PM 28.2167 -81.1833 352° North 304 350 9,400 -586 Descending Orlando TRACON
Mon 01:43:53 PM 28.3000 -81.1833 360° North 306 352 9,000 -157 Descending Orlando TRACON
Mon 01:44:41 PM 28.3667 -81.1833 360° North 253 291 9,100 -579 Climbing Orlando TRACON
Mon 01:45:47 PM 28.4500 -81.1833 360° North 255 293 7,900 -1,286 Descending Orlando TRACON
Mon 01:46:47 PM 28.5167 -81.1833 360° North 249 287 6,400 -1,550 Descending Orlando TRACON
Mon 01:47:47 PM 28.5667 -81.2167 330° Northwest 239 275 4,800 -1,650 Descending Orlando TRACON
Mon 01:48:47 PM 28.5833 -81.2833 286° West 222 255 3,100 -1,100 Descending Orlando TRACON
Mon 01:49:47 PM 28.5500 -81.3333 233° Southwest 196 226 2,600 -893 Descending Orlando TRACON
Mon 01:50:48 PM 28.5000 -81.3333 180° South 156 180 1,300 -1,279 Descending Orlando TRACON
Mon 01:52:00 PM 28.4294 -81.3090 199° South  Level Estimated
Mon 01:59:00 PM 28.4294 -81.3090 199° South  Level Estimated
Mon 02:00:00 PM 28.4294 -81.3090 199° South  Level Estimated

Login

Don't have an account? Register now (free) for customized features, flight alerts, and more!